Date,TemperatureHighF,TemperatureAvgF,TemperatureLowF,DewpointHighF,DewpointAvgF,DewpointLowF,HumidityHigh,HumidityAvg,HumidityLow,PressureMaxIn,PressureMinIn,WindSpeedMaxMPH,WindSpeedAvgMPH,GustSpeedMaxMPH,PrecipitationSumIn
2013-2-1,31.7,24.9,16.0,17.0,7.7,0.0,58,48,37,30.03,29.43,32,15,36,0.00
2013-2-2,24.3,18.8,11.7,19.0,6.6,-2.0,90,60,39,30.22,30.04,18,5,29,0.00
2013-2-3,28.1,24.4,20.8,22.0,18.7,14.0,94,79,66,30.08,29.68,18,8,22,0.00
2013-2-4,26.7,21.8,16.7,15.0,7.2,-5.0,77,55,38,29.88,29.63,27,13,36,0.00
2013-2-5,24.4,17.0,11.2,8.0,-0.4,-6.0,73,48,29,30.05,29.88,19,5,25,0.00
2013-2-6,36.8,26.0,15.4,28.0,15.6,-6.0,89,67,32,30.29,29.93,16,6,28,0.00
2013-2-7,17.8,12.7,8.1,-2.0,-6.9,-13.0,61,43,25,30.61,30.29,15,5,22,0.00
2013-2-8,23.2,16.6,11.0,22.0,11.9,-4.0,94,83,51,30.62,29.88,30,12,46,0.00
2013-2-9,17.9,14.5,11.1,15.0,11.6,9.0,93,88,71,30.08,29.64,43,21,56,0.01
2013-2-10,33.1,22.2,14.4,17.0,5.9,2.0,79,52,28,30.37,30.09,23,10,31,0.00
2013-2-11,41.2,27.6,9.8,40.0,24.8,7.0,96,89,68,30.37,29.58,11,1,19,0.60
2013-2-12,42.5,36.6,31.9,34.0,30.4,28.0,95,79,59,29.78,29.51,19,7,28,0.01
2013-2-13,40.8,34.9,30.2,29.0,25.9,23.0,87,70,49,29.82,29.74,18,4,24,0.00
2013-2-14,38.8,32.2,23.8,25.0,20.5,16.0,88,64,41,30.02,29.72,19,6,24,0.00
2013-2-15,44.3,34.1,23.4,39.0,30.9,21.0,95,88,77,30.02,29.93,24,4,29,0.00
2013-2-16,37.1,32.2,26.5,33.0,29.7,24.0,96,91,82,29.95,29.76,19,6,25,0.00
2013-2-17,26.3,22.1,18.2,23.0,15.9,7.0,88,77,58,29.75,29.08,46,22,57,0.00
2013-2-18,31.4,22.0,14.1,8.0,3.9,-1.0,58,46,33,30.02,29.38,39,18,48,0.00
2013-2-19,42.6,31.5,18.1,40.0,16.8,-1.0,91,58,26,30.11,29.64,18,5,26,0.29
2013-2-20,44.6,36.7,28.5,43.0,28.7,18.0,94,74,56,29.63,29.42,20,10,27,0.36
2013-2-21,34.3,27.5,23.1,27.0,18.1,11.0,85,68,55,30.11,29.63,19,10,27,0.00
2013-2-22,37.7,32.5,26.7,26.0,23.3,21.0,83,70,53,30.39,30.12,20,5,26,0.00
2013-2-23,35.6,31.8,26.8,31.0,27.7,22.0,92,85,79,30.38,30.06,21,6,21,0.00
2013-2-24,32.0,30.6,28.8,30.0,28.9,26.0,94,93,89,30.07,29.80,10,5,18,0.00
2013-2-25,39.8,30.3,22.3,26.0,20.5,13.0,92,69,36,30.26,29.91,11,3,15,0.08
2013-2-26,42.7,33.2,24.1,32.0,26.8,22.0,91,78,52,30.38,30.27,9,1,11,0.00
2013-2-27,39.0,34.5,28.4,34.0,31.2,26.0,98,87,75,30.29,29.73,30,15,39,0.07
2013-2-28,41.9,38.6,33.0,42.0,38.3,32.0,99,99,97,29.72,29.54,24,9,31,0.10